Time;durP1;ratioP1;P1;durP2;ratioP2;P2;SDS_P1;SDS_P2;PMS_P1;PMS_P2;Temp;Humidity;BMP_temperature;BMP_pressure;BME280_temperature;BME280_humidity;BME280_pressure;Samples;Min_cycle;Max_cycle;Signal;HPM_P1;HPM_P2
2022/06/28 00:01:04;;;;;;;;;;;;;;;;;;5104375;28;1173;-79
2022/06/28 00:03:29;;;;;;;;;;;;;;;;;;5084701;28;1381;-79
2022/06/28 00:05:54;;;;;;;;;;;;;;;;;;5085374;28;1285;-79
2022/06/28 00:08:22;;;;;;;;;;;;;;;;;;5104424;28;1894;-79
2022/06/28 00:10:48;;;;;;;;;;;;;;;;;;5106305;28;1156;-79
2022/06/28 00:13:13;;;;;;;;;;;;;;;;;;5104615;28;1281;-79
2022/06/28 00:18:23;;;;;;;;;;;;;;;;;;5106469;28;1266;-79
2022/06/28 00:20:48;;;;;;;;;;;;;;;;;;5106943;28;1415;-79
2022/06/28 00:23:13;;;;;;;;;;;;;;;;;;5126806;28;1266;-79
2022/06/28 00:25:38;;;;;;;;;;;;;;;;;;5126317;27;1151;-79
2022/06/28 00:28:04;;;;;;;;;;;;;;;;;;5125624;28;1968;-79
2022/06/28 00:30:29;;;;;;;;;;;;;;;;;;5110153;28;1219;-79
2022/06/28 00:32:54;;;;;;;;;;;;;;;;;;5109288;28;1291;-79
2022/06/28 00:35:20;;;;;;;;;;;;;;;;;;5124323;27;1175;-79
2022/06/28 00:37:45;;;;;;;;;;;;;;;;;;5109447;27;1171;-79
2022/06/28 00:40:11;;;;;;;;;;;;;;;;;;5112230;27;1127;-78
2022/06/28 00:42:37;;;;;;;;;;;;;;;;;;5129024;27;1221;-79
2022/06/28 00:45:04;;;;;;;;;;;;;;;;;;5127812;27;1207;-78
2022/06/28 00:47:29;;;;;;;;;;;;;;;;;;5108941;27;1917;-78
2022/06/28 00:49:56;;;;;;;;;;;;;;;;;;5114188;27;1291;-78
2022/06/28 00:52:21;;;;;;;;;;;;;;;;;;5109343;28;1166;-78
2022/06/28 00:54:47;;;;;;;;;;;;;;;;;;5108652;27;1331;-78
2022/06/28 00:57:13;;;;;;;;;;;;;;;;;;5111570;28;1167;-78
2022/06/28 00:59:38;;;;;;;;;;;;;;;;;;5105795;28;1406;-78
2022/06/28 01:02:03;;;;;;;;;;;;;;;;;;5106358;28;1255;-78
2022/06/28 01:04:29;;;;;;;;;;;;;;;;;;5086658;28;1221;-78
2022/06/28 01:06:54;;;;;;;;;;;;;;;;;;5109488;28;1280;-79
2022/06/28 01:09:20;;;;;;;;;;;;;;;;;;5107958;28;1949;-79
2022/06/28 01:11:45;;;;;;;;;;;;;;;;;;5089108;28;1157;-79
2022/06/28 01:14:11;;;;;;;;;;;;;;;;;;5094297;27;1194;-79
2022/06/28 01:16:37;;;;;;;;;;;;;;;;;;5112056;27;1189;-79
2022/06/28 01:19:03;;;;;;;;;;;;;;;;;;5123993;27;1213;-79
2022/06/28 01:21:30;;;;;;;;;;;;;;;;;;5129347;27;1163;-78
2022/06/28 01:23:58;;;;;;;;;;;;;;;;;;5128901;27;1194;-78
2022/06/28 01:26:25;;;;;;;;;;;;;;;;;;5131266;27;1155;-79
2022/06/28 01:28:51;;;;;;;;;;;;;;;;;;5112649;27;1988;-79
2022/06/28 01:31:17;;;;;;;;;;;;;;;;;;5106533;28;1218;-79
2022/06/28 01:33:43;;;;;;;;;;;;;;;;;;5106683;28;1164;-78
2022/06/28 01:36:09;;;;;;;;;;;;;;;;;;5111125;27;1151;-79
2022/06/28 01:38:35;;;;;;;;;;;;;;;;;;5127910;27;1186;-78
2022/06/28 01:41:01;;;;;;;;;;;;;;;;;;5129856;27;1170;-79
2022/06/28 01:43:33;;;;;;;;;;;;;;;;;;5111061;27;1337;-78
2022/06/28 01:46:00;;;;;;;;;;;;;;;;;;5109035;27;1273;-78
2022/06/28 01:48:25;;;;;;;;;;;;;;;;;;5103147;27;1991;-78
2022/06/28 01:50:52;;;;;;;;;;;;;;;;;;5119940;27;1187;-78
2022/06/28 01:53:18;;;;;;;;;;;;;;;;;;5124909;27;1315;-78
2022/06/28 01:55:43;;;;;;;;;;;;;;;;;;5125807;27;1238;-78
2022/06/28 01:58:08;;;;;;;;;;;;;;;;;;5107401;27;1303;-78
2022/06/28 02:00:34;;;;;;;;;;;;;;;;;;5104325;28;1136;-78
2022/06/28 02:02:59;;;;;;;;;;;;;;;;;;5106537;28;1131;-78
2022/06/28 02:05:25;;;;;;;;;;;;;;;;;;5085092;28;1318;-78
2022/06/28 02:07:51;;;;;;;;;;;;;;;;;;5102270;28;1937;-77
2022/06/28 02:10:17;;;;;;;;;;;;;;;;;;5087466;28;1277;-78
2022/06/28 02:12:42;;;;;;;;;;;;;;;;;;5105599;28;1151;-78
2022/06/28 02:15:08;;;;;;;;;;;;;;;;;;5104498;28;1195;-79
2022/06/28 02:17:37;;;;;;;;;;;;;;;;;;5104537;28;1285;-79
2022/06/28 02:20:03;;;;;;;;;;;;;;;;;;5086341;28;1238;-79
2022/06/28 02:22:28;;;;;;;;;;;;;;;;;;5086728;28;1424;-79
2022/06/28 02:24:53;;;;;;;;;;;;;;;;;;5106489;28;1175;-80
2022/06/28 02:27:19;;;;;;;;;;;;;;;;;;5109015;27;1219;-80
2022/06/28 02:29:44;;;;;;;;;;;;;;;;;;5113036;27;1897;-80
2022/06/28 02:32:09;;;;;;;;;;;;;;;;;;5087199;28;1170;-79
2022/06/28 02:40:22;;;;;;;;;;;;;;;;;;5117138;27;1040;-79
2022/06/28 02:42:58;;;;;;;;;;;;;;;;;;5093356;28;1241;-79
2022/06/28 02:45:24;;;;;;;;;;;;;;;;;;5103399;27;1376;-79
2022/06/28 02:47:50;;;;;;;;;;;;;;;;;;5115510;27;1917;-78
2022/06/28 02:50:18;;;;;;;;;;;;;;;;;;5126469;27;1179;-80
2022/06/28 02:52:43;;;;;;;;;;;;;;;;;;5125996;27;1219;-79
2022/06/28 02:55:09;;;;;;;;;;;;;;;;;;5126848;27;1226;-78
2022/06/28 02:57:38;;;;;;;;;;;;;;;;;;5125758;27;1151;-79
2022/06/28 03:00:07;;;;;;;;;;;;;;;;;;5123319;27;1194;-80
2022/06/28 03:02:53;;;;;;;;;;;;;;;;;;5103690;27;1447;-79
2022/06/28 03:05:19;;;;;;;;;;;;;;;;;;5104340;28;1206;-79
2022/06/28 03:07:45;;;;;;;;;;;;;;;;;;5103843;28;1906;-79
2022/06/28 03:10:11;;;;;;;;;;;;;;;;;;5104959;28;1191;-79
2022/06/28 03:12:45;;;;;;;;;;;;;;;;;;5105108;28;1182;-79
2022/06/28 03:15:11;;;;;;;;;;;;;;;;;;5103787;28;1147;-79
2022/06/28 03:17:36;;;;;;;;;;;;;;;;;;5117508;27;1206;-79
2022/06/28 03:20:03;;;;;;;;;;;;;;;;;;5105757;28;1325;-79
2022/06/28 03:22:28;;;;;;;;;;;;;;;;;;5083745;28;1261;-79
2022/06/28 03:24:53;;;;;;;;;;;;;;;;;;5083127;28;1284;-79
2022/06/28 03:27:18;;;;;;;;;;;;;;;;;;5100735;28;1199;-79
2022/06/28 03:29:44;;;;;;;;;;;;;;;;;;5102190;28;1881;-79
2022/06/28 03:32:09;;;;;;;;;;;;;;;;;;5085461;28;1168;-80
2022/06/28 03:34:34;;;;;;;;;;;;;;;;;;5077434;28;1328;-79
2022/06/28 03:36:59;;;;;;;;;;;;;;;;;;5104654;28;1127;-79
2022/06/28 03:39:25;;;;;;;;;;;;;;;;;;5087020;28;1162;-79
2022/06/28 03:41:50;;;;;;;;;;;;;;;;;;5086225;28;1213;-79
2022/06/28 03:44:15;;;;;;;;;;;;;;;;;;5105433;28;1159;-79
2022/06/28 03:46:44;;;;;;;;;;;;;;;;;;5105558;28;1223;-79
2022/06/28 03:49:09;;;;;;;;;;;;;;;;;;5098412;28;1910;-79
2022/06/28 03:51:34;;;;;;;;;;;;;;;;;;5085139;28;1132;-79
2022/06/28 03:53:59;;;;;;;;;;;;;;;;;;5104020;28;1309;-79
2022/06/28 03:56:26;;;;;;;;;;;;;;;;;;5109599;28;1116;-79
2022/06/28 03:58:51;;;;;;;;;;;;;;;;;;5123359;28;1243;-79
2022/06/28 04:01:16;;;;;;;;;;;;;;;;;;5123746;28;1279;-79
2022/06/28 04:03:45;;;;;;;;;;;;;;;;;;5106655;28;1284;-79
2022/06/28 04:06:10;;;;;;;;;;;;;;;;;;5107269;28;1419;-79
2022/06/28 04:08:35;;;;;;;;;;;;;;;;;;5108462;28;1941;-79
2022/06/28 04:11:16;;;;;;;;;;;;;;;;;;5108526;27;1301;-79
2022/06/28 04:13:48;;;;;;;;;;;;;;;;;;5130133;27;1094;-79
2022/06/28 04:16:14;;;;;;;;;;;;;;;;;;5126983;27;1161;-79
2022/06/28 04:18:40;;;;;;;;;;;;;;;;;;5127030;27;1327;-80
2022/06/28 04:21:05;;;;;;;;;;;;;;;;;;5120445;27;1151;-79
2022/06/28 04:23:31;;;;;;;;;;;;;;;;;;5108194;27;1211;-79
2022/06/28 04:25:56;;;;;;;;;;;;;;;;;;5107553;28;1156;-79
2022/06/28 04:28:21;;;;;;;;;;;;;;;;;;5108071;28;1890;-79
2022/06/28 04:30:47;;;;;;;;;;;;;;;;;;5123887;27;1167;-78
2022/06/28 04:33:12;;;;;;;;;;;;;;;;;;5110518;27;1343;-78
2022/06/28 04:35:37;;;;;;;;;;;;;;;;;;5091864;28;1187;-78
2022/06/28 04:38:03;;;;;;;;;;;;;;;;;;5107020;28;1275;-78
2022/06/28 04:40:28;;;;;;;;;;;;;;;;;;5117600;27;1248;-78
2022/06/28 04:42:53;;;;;;;;;;;;;;;;;;5120884;27;1198;-78
2022/06/28 04:45:18;;;;;;;;;;;;;;;;;;5127483;27;1198;-78
2022/06/28 04:47:44;;;;;;;;;;;;;;;;;;5127447;27;1925;-78
2022/06/28 04:50:19;;;;;;;;;;;;;;;;;;5109367;27;1223;-78
2022/06/28 04:52:44;;;;;;;;;;;;;;;;;;5129167;27;1143;-77
2022/06/28 04:55:10;;;;;;;;;;;;;;;;;;5111055;27;1173;-77
2022/06/28 04:57:35;;;;;;;;;;;;;;;;;;5129739;27;1351;-77
2022/06/28 05:00:01;;;;;;;;;;;;;;;;;;5126179;27;1236;-77
2022/06/28 05:02:26;;;;;;;;;;;;;;;;;;5112185;27;1313;-78
2022/06/28 05:04:52;;;;;;;;;;;;;;;;;;5091328;27;1084;-76
2022/06/28 05:07:17;;;;;;;;;;;;;;;;;;5107215;28;1274;-77
2022/06/28 05:09:43;;;;;;;;;;;;;;;;;;5108035;28;1958;-77
2022/06/28 05:12:08;;;;;;;;;;;;;;;;;;5107257;28;1241;-77
2022/06/28 05:14:34;;;;;;;;;;;;;;;;;;5086986;28;1247;-78
2022/06/28 05:16:59;;;;;;;;;;;;;;;;;;5105829;28;1131;-78
2022/06/28 05:19:25;;;;;;;;;;;;;;;;;;5106539;28;1152;-78
2022/06/28 05:21:54;;;;;;;;;;;;;;;;;;5104885;28;1336;-77
2022/06/28 05:24:19;;;;;;;;;;;;;;;;;;5105979;28;1300;-77
2022/06/28 05:26:44;;;;;;;;;;;;;;;;;;5108481;28;1259;-78
2022/06/28 05:29:10;;;;;;;;;;;;;;;;;;5103593;28;1890;-77
2022/06/28 05:31:35;;;;;;;;;;;;;;;;;;5088549;28;1224;-78
2022/06/28 05:34:01;;;;;;;;;;;;;;;;;;5104953;28;1054;-78
2022/06/28 05:36:26;;;;;;;;;;;;;;;;;;5086124;28;1227;-77
2022/06/28 05:38:59;;;;;;;;;;;;;;;;;;5105684;28;1223;-78
2022/06/28 05:41:25;;;;;;;;;;;;;;;;;;5125286;27;1224;-77
2022/06/28 05:43:51;;;;;;;;;;;;;;;;;;5091465;27;1246;-78
2022/06/28 05:46:17;;;;;;;;;;;;;;;;;;5103583;28;1308;-78
2022/06/28 05:48:42;;;;;;;;;;;;;;;;;;5103963;28;1981;-78
2022/06/28 05:51:07;;;;;;;;;;;;;;;;;;5084753;27;1240;-78
2022/06/28 05:53:33;;;;;;;;;;;;;;;;;;5111796;27;1407;-78
2022/06/28 05:55:58;;;;;;;;;;;;;;;;;;5086055;28;1216;-79
2022/06/28 05:58:23;;;;;;;;;;;;;;;;;;5089111;28;1179;-78
2022/06/28 06:00:49;;;;;;;;;;;;;;;;;;5108477;27;1092;-78
2022/06/28 06:03:15;;;;;;;;;;;;;;;;;;5103864;28;1314;-78
2022/06/28 06:05:40;;;;;;;;;;;;;;;;;;5104056;28;1205;-78
2022/06/28 06:08:05;;;;;;;;;;;;;;;;;;5103427;28;1901;-78
2022/06/28 06:10:30;;;;;;;;;;;;;;;;;;5105622;28;1174;-78
2022/06/28 06:12:56;;;;;;;;;;;;;;;;;;5106036;28;1163;-77
2022/06/28 06:15:22;;;;;;;;;;;;;;;;;;5104621;28;1241;-78
2022/06/28 06:17:47;;;;;;;;;;;;;;;;;;5104368;28;1312;-79
2022/06/28 06:20:19;;;;;;;;;;;;;;;;;;5089311;28;1176;-78
2022/06/28 06:22:47;;;;;;;;;;;;;;;;;;5085859;28;1276;-78
2022/06/28 06:25:13;;;;;;;;;;;;;;;;;;5067618;28;1128;-77
2022/06/28 06:27:38;;;;;;;;;;;;;;;;;;5100921;28;1296;-77
2022/06/28 06:30:05;;;;;;;;;;;;;;;;;;5105267;28;1881;-77
2022/06/28 06:32:38;;;;;;;;;;;;;;;;;;5085157;28;1238;-78
2022/06/28 06:35:04;;;;;;;;;;;;;;;;;;5105613;28;1137;-77
2022/06/28 06:37:29;;;;;;;;;;;;;;;;;;5105855;28;1215;-77
2022/06/28 06:39:54;;;;;;;;;;;;;;;;;;5086176;28;1201;-78
2022/06/28 06:42:20;;;;;;;;;;;;;;;;;;5104819;28;1282;-78
2022/06/28 06:44:45;;;;;;;;;;;;;;;;;;5110773;27;1124;-78
2022/06/28 06:47:10;;;;;;;;;;;;;;;;;;5110931;27;1338;-78
2022/06/28 06:49:35;;;;;;;;;;;;;;;;;;5108115;27;1905;-77
2022/06/28 06:52:05;;;;;;;;;;;;;;;;;;5115561;27;1405;-78
2022/06/28 06:54:30;;;;;;;;;;;;;;;;;;5129887;27;1171;-77
2022/06/28 06:56:55;;;;;;;;;;;;;;;;;;5112437;27;1217;-77
2022/06/28 06:59:20;;;;;;;;;;;;;;;;;;5126212;27;1184;-76
2022/06/28 07:01:46;;;;;;;;;;;;;;;;;;5129194;27;1264;-77
2022/06/28 07:04:11;;;;;;;;;;;;;;;;;;5125277;27;1198;-77
2022/06/28 07:06:37;;;;;;;;;;;;;;;;;;5128052;27;1171;-77
2022/06/28 07:09:03;;;;;;;;;;;;;;;;;;5125945;27;1957;-77
2022/06/28 07:11:29;;;;;;;;;;;;;;;;;;5128928;27;1178;-77
2022/06/28 07:14:06;;;;;;;;;;;;;;;;;;5128718;27;1150;-76
2022/06/28 07:16:31;;;;;;;;;;;;;;;;;;5112847;27;1272;-76
2022/06/28 07:18:57;;;;;;;;;;;;;;;;;;5135669;27;1166;-77
2022/06/28 07:21:22;;;;;;;;;;;;;;;;;;5125885;27;1270;-77
2022/06/28 07:23:48;;;;;;;;;;;;;;;;;;5091307;27;1419;-76
2022/06/28 07:26:13;;;;;;;;;;;;;;;;;;5125493;27;1214;-77
2022/06/28 07:28:39;;;;;;;;;;;;;;;;;;5105997;27;1949;-77
2022/06/28 07:31:05;;;;;;;;;;;;;;;;;;5087848;27;1321;-77
2022/06/28 07:33:31;;;;;;;;;;;;;;;;;;5113171;27;1175;-77
2022/06/28 07:35:56;;;;;;;;;;;;;;;;;;5088055;27;1266;-75
2022/06/28 07:38:21;;;;;;;;;;;;;;;;;;5126027;27;1092;-76
2022/06/28 07:40:47;;;;;;;;;;;;;;;;;;5127342;27;1229;-76
2022/06/28 07:43:12;;;;;;;;;;;;;;;;;;5125928;27;1272;-76
2022/06/28 07:45:39;;;;;;;;;;;;;;;;;;5128738;27;1237;-75
2022/06/28 07:48:05;;;;;;;;;;;;;;;;;;5109212;27;1975;-75
2022/06/28 07:53:14;;;;;;;;;;;;;;;;;;5106122;28;1036;-76
2022/06/28 07:55:39;;;;;;;;;;;;;;;;;;5091460;28;1349;-77
2022/06/28 07:58:10;;;;;;;;;;;;;;;;;;5122515;27;1202;-76
2022/06/28 08:00:35;;;;;;;;;;;;;;;;;;5111172;27;1193;-76
2022/06/28 08:03:00;;;;;;;;;;;;;;;;;;5109865;27;1169;-76
2022/06/28 08:05:26;;;;;;;;;;;;;;;;;;5099632;27;1185;-76
2022/06/28 08:07:51;;;;;;;;;;;;;;;;;;5129083;27;1889;-77
2022/06/28 08:10:16;;;;;;;;;;;;;;;;;;5125590;27;1273;-76
2022/06/28 08:12:42;;;;;;;;;;;;;;;;;;5110509;27;1383;-76
2022/06/28 08:15:18;;;;;;;;;;;;;;;;;;5126459;27;1243;-76
2022/06/28 08:17:44;;;;;;;;;;;;;;;;;;5117604;27;1203;-77
2022/06/28 08:20:18;;;;;;;;;;;;;;;;;;5106640;28;1304;-77
2022/06/28 08:22:43;;;;;;;;;;;;;;;;;;5105347;28;1265;-77
2022/06/28 08:25:14;;;;;;;;;;;;;;;;;;5088254;28;1206;-76
2022/06/28 08:27:40;;;;;;;;;;;;;;;;;;5107136;28;1148;-77
2022/06/28 08:30:06;;;;;;;;;;;;;;;;;;5126975;27;1898;-76
2022/06/28 08:32:38;;;;;;;;;;;;;;;;;;5126010;27;1220;-77
2022/06/28 08:35:04;;;;;;;;;;;;;;;;;;5108742;27;1116;-77
2022/06/28 08:37:29;;;;;;;;;;;;;;;;;;5104516;28;1124;-77
2022/06/28 08:39:54;;;;;;;;;;;;;;;;;;5089015;28;1100;-76
2022/06/28 08:42:24;;;;;;;;;;;;;;;;;;5103852;27;1206;-76
2022/06/28 08:44:50;;;;;;;;;;;;;;;;;;5125436;27;1259;-75
2022/06/28 08:47:18;;;;;;;;;;;;;;;;;;5127364;27;1273;-77
2022/06/28 08:49:49;;;;;;;;;;;;;;;;;;5111603;28;1913;-77
2022/06/28 08:52:16;;;;;;;;;;;;;;;;;;5109315;28;1227;-76
2022/06/28 08:54:41;;;;;;;;;;;;;;;;;;5110672;28;1245;-77
2022/06/28 08:57:06;;;;;;;;;;;;;;;;;;5110794;28;1377;-77
2022/06/28 08:59:33;;;;;;;;;;;;;;;;;;5099444;27;1202;-77
2022/06/28 09:01:58;;;;;;;;;;;;;;;;;;5112916;27;1249;-77
2022/06/28 09:04:23;;;;;;;;;;;;;;;;;;5126801;27;1255;-76
2022/06/28 09:06:49;;;;;;;;;;;;;;;;;;5112862;27;1226;-78
2022/06/28 09:09:15;;;;;;;;;;;;;;;;;;5110461;27;1897;-77
2022/06/28 09:11:42;;;;;;;;;;;;;;;;;;5130185;27;1337;-78
2022/06/28 09:14:21;;;;;;;;;;;;;;;;;;5127835;27;1198;-77
2022/06/28 09:16:46;;;;;;;;;;;;;;;;;;5130302;27;1328;-78
2022/06/28 09:19:16;;;;;;;;;;;;;;;;;;5125520;27;1272;-78
2022/06/28 09:21:46;;;;;;;;;;;;;;;;;;5113500;27;1155;-77
2022/06/28 09:24:33;;;;;;;;;;;;;;;;;;5128202;27;1244;-78
2022/06/28 09:27:04;;;;;;;;;;;;;;;;;;5127927;27;1288;-79
2022/06/28 09:29:29;;;;;;;;;;;;;;;;;;5117750;28;2318;-77
2022/06/28 09:31:55;;;;;;;;;;;;;;;;;;5092071;28;1171;-77
2022/06/28 09:34:20;;;;;;;;;;;;;;;;;;5103482;28;1243;-76
2022/06/28 09:36:57;;;;;;;;;;;;;;;;;;5108309;28;786;-79
2022/06/28 09:39:26;;;;;;;;;;;;;;;;;;5118697;27;1218;-79
2022/06/28 09:41:52;;;;;;;;;;;;;;;;;;5128242;27;1456;-77
2022/06/28 09:44:22;;;;;;;;;;;;;;;;;;5125716;27;1154;-77
2022/06/28 09:46:48;;;;;;;;;;;;;;;;;;5149020;27;1261;-77
2022/06/28 09:49:19;;;;;;;;;;;;;;;;;;5068600;27;1679197;-77
2022/06/28 09:51:44;;;;;;;;;;;;;;;;;;5130663;27;1345;-78
2022/06/28 09:54:09;;;;;;;;;;;;;;;;;;5129880;27;1282;-75
2022/06/28 09:56:36;;;;;;;;;;;;;;;;;;5129710;27;1186;-76
2022/06/28 09:59:07;;;;;;;;;;;;;;;;;;5127668;27;1324;-76
2022/06/28 10:01:33;;;;;;;;;;;;;;;;;;5118556;27;1222;-77
2022/06/28 10:03:58;;;;;;;;;;;;;;;;;;5108793;27;1404;-80
2022/06/28 10:06:24;;;;;;;;;;;;;;;;;;5118001;27;1273;-80
2022/06/28 10:08:50;;;;;;;;;;;;;;;;;;5129997;27;1898;-80
2022/06/28 10:11:20;;;;;;;;;;;;;;;;;;5147767;27;1079;-82
2022/06/28 10:16:46;;;;;;;;;;;;;;;;;;5138361;27;983;-81
2022/06/28 10:19:12;;;;;;;;;;;;;;;;;;5117490;27;1230;-79
2022/06/28 10:21:41;;;;;;;;;;;;;;;;;;5092697;27;1304;-79
2022/06/28 10:24:09;;;;;;;;;;;;;;;;;;5108773;27;1289;-81
2022/06/28 10:26:35;;;;;;;;;;;;;;;;;;5090681;27;1319;-80
2022/06/28 10:29:02;;;;;;;;;;;;;;;;;;5090964;27;1882;-79
2022/06/28 10:31:30;;;;;;;;;;;;;;;;;;5128186;27;1421;-79
2022/06/28 10:34:01;;;;;;;;;;;;;;;;;;5141380;27;1055;-82
2022/06/28 10:36:27;;;;;;;;;;;;;;;;;;5124945;27;1369;-80
2022/06/28 10:39:13;;;;;;;;;;;;;;;;;;5131791;27;1163;-82
2022/06/28 10:41:42;;;;;;;;;;;;;;;;;;5147004;27;1234;-76
2022/06/28 10:44:12;;;;;;;;;;;;;;;;;;5125315;27;1330;-77
2022/06/28 10:46:38;;;;;;;;;;;;;;;;;;5121286;27;1162;-77
2022/06/28 10:49:05;;;;;;;;;;;;;;;;;;5124084;27;1968;-76
2022/06/28 10:51:31;;;;;;;;;;;;;;;;;;5123397;27;1095;-76
2022/06/28 10:54:04;;;;;;;;;;;;;;;;;;5088394;27;1243;-77
2022/06/28 10:56:30;;;;;;;;;;;;;;;;;;5107291;27;1199;-77
2022/06/28 10:59:05;;;;;;;;;;;;;;;;;;5107495;27;1273;-79
2022/06/28 11:01:39;;;;;;;;;;;;;;;;;;5106917;27;1230;-76
2022/06/28 11:04:23;;;;;;;;;;;;;;;;;;5105751;27;1174;-76
2022/06/28 11:06:50;;;;;;;;;;;;;;;;;;5106185;27;1226;-76
2022/06/28 11:09:23;;;;;;;;;;;;;;;;;;5124093;27;1963;-76
2022/06/28 11:12:07;;;;;;;;;;;;;;;;;;5128901;27;1174;-76
2022/06/28 11:14:36;;;;;;;;;;;;;;;;;;5120011;27;1194;-77
2022/06/28 11:17:01;;;;;;;;;;;;;;;;;;5106563;27;1363;-77
2022/06/28 11:19:27;;;;;;;;;;;;;;;;;;5112907;27;1383;-77
2022/06/28 11:21:54;;;;;;;;;;;;;;;;;;5109883;27;1352;-77
2022/06/28 11:24:20;;;;;;;;;;;;;;;;;;5114374;27;1340;-77
2022/06/28 11:29:29;;;;;;;;;;;;;;;;;;5107335;27;1947;-77
2022/06/28 11:31:55;;;;;;;;;;;;;;;;;;5111697;27;1162;-77
2022/06/28 11:34:29;;;;;;;;;;;;;;;;;;5121965;27;1218;-77
2022/06/28 11:36:56;;;;;;;;;;;;;;;;;;5085581;27;1470;-76
2022/06/28 11:39:23;;;;;;;;;;;;;;;;;;5105602;27;1195;-77
2022/06/28 11:41:48;;;;;;;;;;;;;;;;;;5124694;27;1259;-77
2022/06/28 11:44:14;;;;;;;;;;;;;;;;;;5122206;27;1269;-77
2022/06/28 11:46:39;;;;;;;;;;;;;;;;;;5106821;27;1198;-77
2022/06/28 11:49:05;;;;;;;;;;;;;;;;;;5089879;27;1968;-77
2022/06/28 11:51:31;;;;;;;;;;;;;;;;;;5085152;27;1199;-76
2022/06/28 11:53:57;;;;;;;;;;;;;;;;;;5125386;27;1155;-77
2022/06/28 11:56:22;;;;;;;;;;;;;;;;;;5089763;27;1211;-77
2022/06/28 11:58:48;;;;;;;;;;;;;;;;;;5089684;27;1270;-77
2022/06/28 12:01:14;;;;;;;;;;;;;;;;;;5106495;27;1190;-77
2022/06/28 12:03:42;;;;;;;;;;;;;;;;;;5122664;27;1374;-77
2022/06/28 12:06:29;;;;;;;;;;;;;;;;;;5122076;27;1375;-77
2022/06/28 12:08:57;;;;;;;;;;;;;;;;;;5107835;27;1885;-79
2022/06/28 12:11:35;;;;;;;;;;;;;;;;;;5125520;27;1186;-77
2022/06/28 12:14:08;;;;;;;;;;;;;;;;;;5104697;27;1282;-77
2022/06/28 12:16:34;;;;;;;;;;;;;;;;;;5123397;27;1044;-77
2022/06/28 12:19:01;;;;;;;;;;;;;;;;;;5122899;27;1319;-79
2022/06/28 12:21:28;;;;;;;;;;;;;;;;;;5105006;27;1338;-77
2022/06/28 12:23:55;;;;;;;;;;;;;;;;;;5125220;27;1374;-78
2022/06/28 12:26:21;;;;;;;;;;;;;;;;;;5127618;27;1424;-76
2022/06/28 12:28:47;;;;;;;;;;;;;;;;;;5125735;27;1960;-77
2022/06/28 12:31:12;;;;;;;;;;;;;;;;;;5124650;27;1332;-76
2022/06/28 12:33:38;;;;;;;;;;;;;;;;;;5146494;27;1167;-79
2022/06/28 12:36:03;;;;;;;;;;;;;;;;;;5108872;27;1187;-77
2022/06/28 12:38:29;;;;;;;;;;;;;;;;;;5111263;27;881;-77
2022/06/28 12:40:55;;;;;;;;;;;;;;;;;;5110545;27;1195;-78
2022/06/28 12:43:20;;;;;;;;;;;;;;;;;;5093996;27;1226;-77
2022/06/28 12:45:45;;;;;;;;;;;;;;;;;;5090206;27;1175;-78
2022/06/28 12:48:11;;;;;;;;;;;;;;;;;;5109836;27;1913;-78
2022/06/28 12:50:36;;;;;;;;;;;;;;;;;;5090268;27;1194;-78
2022/06/28 12:53:01;;;;;;;;;;;;;;;;;;5093957;27;1301;-78
2022/06/28 12:55:26;;;;;;;;;;;;;;;;;;5093330;27;1201;-78
2022/06/28 12:57:52;;;;;;;;;;;;;;;;;;5108650;27;1270;-78
2022/06/28 13:00:18;;;;;;;;;;;;;;;;;;5091311;27;1222;-78
2022/06/28 13:02:43;;;;;;;;;;;;;;;;;;5107609;27;1284;-78
2022/06/28 13:05:10;;;;;;;;;;;;;;;;;;5130788;27;857;-78
2022/06/28 13:07:41;;;;;;;;;;;;;;;;;;5089208;27;1260;-75
2022/06/28 13:10:07;;;;;;;;;;;;;;;;;;5094308;27;1955;-75
2022/06/28 13:12:33;;;;;;;;;;;;;;;;;;5110090;27;1206;-75
2022/06/28 13:14:58;;;;;;;;;;;;;;;;;;5095638;27;1160;-76
2022/06/28 13:17:24;;;;;;;;;;;;;;;;;;5115507;27;1244;-76
2022/06/28 13:19:49;;;;;;;;;;;;;;;;;;5120925;27;1407;-77
2022/06/28 13:22:14;;;;;;;;;;;;;;;;;;5125435;27;1155;-77
2022/06/28 13:24:39;;;;;;;;;;;;;;;;;;5130710;27;1116;-77
2022/06/28 13:27:05;;;;;;;;;;;;;;;;;;5129983;27;1236;-77
2022/06/28 13:29:30;;;;;;;;;;;;;;;;;;5129917;27;1881;-77
2022/06/28 13:31:55;;;;;;;;;;;;;;;;;;5113336;27;1281;-77
2022/06/28 13:34:20;;;;;;;;;;;;;;;;;;5113538;27;1367;-78
2022/06/28 13:36:46;;;;;;;;;;;;;;;;;;5099514;27;1163;-77
2022/06/28 13:39:11;;;;;;;;;;;;;;;;;;5092366;27;1189;-77
2022/06/28 13:41:46;;;;;;;;;;;;;;;;;;5090962;27;1195;-77
2022/06/28 13:44:13;;;;;;;;;;;;;;;;;;5106310;27;1251;-77
2022/06/28 13:46:42;;;;;;;;;;;;;;;;;;5092012;27;1324;-76
2022/06/28 13:49:08;;;;;;;;;;;;;;;;;;5126461;27;1905;-78
2022/06/28 13:51:33;;;;;;;;;;;;;;;;;;5117351;27;1226;-79
2022/06/28 13:53:58;;;;;;;;;;;;;;;;;;5127335;27;1308;-79
2022/06/28 13:56:24;;;;;;;;;;;;;;;;;;5130621;27;1202;-79
2022/06/28 13:58:49;;;;;;;;;;;;;;;;;;5099660;27;1304;-79
2022/06/28 14:01:14;;;;;;;;;;;;;;;;;;5101552;27;1242;-80
2022/06/28 14:03:43;;;;;;;;;;;;;;;;;;5111201;27;1263;-79
2022/06/28 14:06:08;;;;;;;;;;;;;;;;;;5126140;27;1273;-79
2022/06/28 14:08:33;;;;;;;;;;;;;;;;;;5108599;27;1881;-79
2022/06/28 14:10:59;;;;;;;;;;;;;;;;;;5111695;27;1258;-79
2022/06/28 14:13:25;;;;;;;;;;;;;;;;;;5113868;27;1175;-79
2022/06/28 14:15:51;;;;;;;;;;;;;;;;;;5109520;27;1174;-80
2022/06/28 14:18:17;;;;;;;;;;;;;;;;;;5107806;27;1097;-80
2022/06/28 14:20:45;;;;;;;;;;;;;;;;;;5106164;27;1284;-79
2022/06/28 14:23:11;;;;;;;;;;;;;;;;;;5128717;27;853;-80
2022/06/28 14:25:36;;;;;;;;;;;;;;;;;;5110517;27;1221;-80
2022/06/28 14:28:02;;;;;;;;;;;;;;;;;;5091443;27;1488;-80
2022/06/28 14:30:30;;;;;;;;;;;;;;;;;;5107850;27;1981;-80
2022/06/28 14:32:56;;;;;;;;;;;;;;;;;;5089658;27;1206;-80
2022/06/28 14:35:22;;;;;;;;;;;;;;;;;;5131147;27;1218;-79
2022/06/28 14:37:47;;;;;;;;;;;;;;;;;;5110832;27;1253;-80
2022/06/28 14:40:12;;;;;;;;;;;;;;;;;;5111418;27;1195;-81
2022/06/28 14:42:37;;;;;;;;;;;;;;;;;;5149081;27;1226;-80
2022/06/28 14:45:08;;;;;;;;;;;;;;;;;;5128910;27;1351;-85
2022/06/28 14:47:41;;;;;;;;;;;;;;;;;;5095003;28;1258;-86
2022/06/28 14:50:08;;;;;;;;;;;;;;;;;;5110566;27;1972;-83
2022/06/28 14:52:34;;;;;;;;;;;;;;;;;;5090417;28;1226;-89
2022/06/28 14:54:59;;;;;;;;;;;;;;;;;;5105357;27;1183;-89
2022/06/28 14:57:25;;;;;;;;;;;;;;;;;;5100445;27;1202;-85
2022/06/28 14:59:50;;;;;;;;;;;;;;;;;;5137515;27;1155;-83
2022/06/28 15:02:15;;;;;;;;;;;;;;;;;;5089201;27;1207;-81
2022/06/28 15:04:44;;;;;;;;;;;;;;;;;;5086707;28;1182;-82
2022/06/28 15:07:09;;;;;;;;;;;;;;;;;;5087091;28;1278;-81
2022/06/28 15:09:35;;;;;;;;;;;;;;;;;;5119133;27;1890;-79
2022/06/28 15:12:01;;;;;;;;;;;;;;;;;;5127940;27;1170;-84
2022/06/28 15:14:26;;;;;;;;;;;;;;;;;;5091912;27;1266;-83
2022/06/28 15:16:51;;;;;;;;;;;;;;;;;;5117544;27;1025;-82
2022/06/28 15:19:17;;;;;;;;;;;;;;;;;;5122289;27;1351;-81
2022/06/28 15:32:38;;;;;;;;;;;;;;;;;;5135790;27;1120;-80
2022/06/28 15:35:03;;;;;;;;;;;;;;;;;;5108864;27;1180;-79
2022/06/28 15:37:28;;;;;;;;;;;;;;;;;;5163774;27;1075;-81
2022/06/28 15:39:54;;;;;;;;;;;;;;;;;;5130464;27;1258;-81
2022/06/28 15:42:19;;;;;;;;;;;;;;;;;;5147563;27;1170;-79
2022/06/28 15:44:44;;;;;;;;;;;;;;;;;;5145606;27;1198;-81
2022/06/28 15:47:10;;;;;;;;;;;;;;;;;;5145694;27;1214;-79
2022/06/28 15:49:36;;;;;;;;;;;;;;;;;;5126803;27;1906;-80
2022/06/28 15:52:01;;;;;;;;;;;;;;;;;;5118366;27;1199;-81
2022/06/28 15:54:26;;;;;;;;;;;;;;;;;;5133430;27;1190;-84
2022/06/28 15:56:51;;;;;;;;;;;;;;;;;;5113008;27;1333;-81
2022/06/28 15:59:17;;;;;;;;;;;;;;;;;;5105398;27;1163;-81
2022/06/28 16:01:42;;;;;;;;;;;;;;;;;;5112476;27;1274;-79
2022/06/28 16:04:07;;;;;;;;;;;;;;;;;;5096483;27;1326;-79
2022/06/28 16:06:33;;;;;;;;;;;;;;;;;;5106240;27;1248;-78
2022/06/28 16:08:58;;;;;;;;;;;;;;;;;;5097163;27;1893;-78
2022/06/28 16:11:23;;;;;;;;;;;;;;;;;;5130252;27;1095;-78
2022/06/28 16:13:50;;;;;;;;;;;;;;;;;;5105750;27;1132;-82
2022/06/28 16:16:16;;;;;;;;;;;;;;;;;;5087468;27;1243;-81
2022/06/28 16:18:41;;;;;;;;;;;;;;;;;;5104442;27;1242;-79
2022/06/28 16:21:07;;;;;;;;;;;;;;;;;;5104842;27;1179;-78
2022/06/28 16:23:32;;;;;;;;;;;;;;;;;;5107235;27;1302;-78
2022/06/28 16:25:58;;;;;;;;;;;;;;;;;;5086068;27;1179;-78
2022/06/28 16:28:23;;;;;;;;;;;;;;;;;;5111639;27;1971;-78
2022/06/28 16:30:54;;;;;;;;;;;;;;;;;;5104921;27;1124;-78
2022/06/28 16:33:19;;;;;;;;;;;;;;;;;;5106284;27;1309;-78
2022/06/28 16:35:45;;;;;;;;;;;;;;;;;;5105286;27;1211;-78
2022/06/28 16:38:10;;;;;;;;;;;;;;;;;;5104622;27;1147;-78
2022/06/28 16:40:35;;;;;;;;;;;;;;;;;;5107191;27;1310;-78
2022/06/28 16:43:01;;;;;;;;;;;;;;;;;;5106877;27;1218;-77
2022/06/28 16:45:26;;;;;;;;;;;;;;;;;;5088053;27;1195;-77
2022/06/28 16:47:55;;;;;;;;;;;;;;;;;;5144176;27;1253;-78
2022/06/28 16:50:23;;;;;;;;;;;;;;;;;;5107448;27;1987;-80
2022/06/28 16:52:49;;;;;;;;;;;;;;;;;;5110839;27;1309;-77
2022/06/28 16:55:14;;;;;;;;;;;;;;;;;;5136574;27;1190;-74
2022/06/28 16:57:41;;;;;;;;;;;;;;;;;;5092146;27;1294;-75
2022/06/28 17:00:11;;;;;;;;;;;;;;;;;;5091506;27;1338;-76
2022/06/28 17:02:37;;;;;;;;;;;;;;;;;;5127953;27;1163;-75
2022/06/28 17:05:03;;;;;;;;;;;;;;;;;;5091433;27;1540;-75
2022/06/28 17:07:31;;;;;;;;;;;;;;;;;;5107406;27;1292;-75
2022/06/28 17:09:58;;;;;;;;;;;;;;;;;;5127140;27;1909;-75
2022/06/28 17:12:24;;;;;;;;;;;;;;;;;;5110107;27;1311;-76
2022/06/28 17:14:49;;;;;;;;;;;;;;;;;;5115445;27;1214;-76
2022/06/28 17:17:15;;;;;;;;;;;;;;;;;;5129815;27;1197;-76
2022/06/28 17:19:41;;;;;;;;;;;;;;;;;;5147623;27;1170;-76
2022/06/28 17:22:07;;;;;;;;;;;;;;;;;;5110125;27;1277;-76
2022/06/28 17:24:32;;;;;;;;;;;;;;;;;;5112805;27;1237;-77
2022/06/28 17:27:01;;;;;;;;;;;;;;;;;;5129179;27;1181;-79